createdAt,value
2016-12-08T00:00:50.379Z,99.99
2016-12-08T00:01:50.455Z,99.99
2016-12-08T00:02:50.335Z,99.99
2016-12-08T00:03:50.849Z,99.99
2016-12-08T00:04:50.258Z,99.99
2016-12-08T00:05:50.271Z,99.99
2016-12-08T00:06:50.699Z,99.99
2016-12-08T00:07:50.205Z,99.99
2016-12-08T00:08:50.481Z,99.99
2016-12-08T00:09:50.311Z,99.99
2016-12-08T00:10:50.657Z,99.99
2016-12-08T00:11:50.083Z,99.99
2016-12-08T00:12:50.348Z,99.99
2016-12-08T00:13:50.649Z,99.99
2016-12-08T00:14:50.921Z,99.99
2016-12-08T00:15:50.314Z,99.99
2016-12-08T00:16:50.388Z,99.99
2016-12-08T00:17:51.088Z,99.99
2016-12-08T00:18:50.577Z,99.99
2016-12-08T00:19:50.688Z,99.99
2016-12-08T00:20:50.235Z,99.99
2016-12-08T00:21:50.893Z,99.99
2016-12-08T00:22:51.187Z,99.99
2016-12-08T00:23:51.602Z,99.99
2016-12-08T00:24:51.120Z,99.99
2016-12-08T00:25:50.911Z,99.99
2016-12-08T00:26:50.323Z,99.99
2016-12-08T00:27:50.474Z,99.99
2016-12-08T00:28:50.420Z,99.99
2016-12-08T00:29:50.337Z,99.99
2016-12-08T00:30:50.451Z,99.99
2016-12-08T00:31:50.248Z,99.99
2016-12-08T00:32:50.537Z,99.99
2016-12-08T00:33:51.440Z,99.99
2016-12-08T00:34:50.525Z,99.99
2016-12-08T00:35:50.905Z,99.99
2016-12-08T00:36:50.679Z,99.99
2016-12-08T00:37:50.607Z,99.99
2016-12-08T00:38:50.917Z,99.99
2016-12-08T00:39:50.453Z,99.99
2016-12-08T00:40:51.265Z,99.99
2016-12-08T00:41:50.944Z,99.99
2016-12-08T00:42:50.536Z,99.99
2016-12-08T00:43:50.637Z,99.99
2016-12-08T00:44:50.603Z,99.99
2016-12-08T00:45:50.613Z,99.99
2016-12-08T00:46:51.015Z,99.99
2016-12-08T00:47:51.899Z,99.99
2016-12-08T00:48:50.591Z,99.99
2016-12-08T00:49:50.793Z,99.99
2016-12-08T00:50:50.832Z,99.99
2016-12-08T00:51:51.154Z,99.99
2016-12-08T00:52:50.925Z,99.99
2016-12-08T00:53:51.264Z,99.99
2016-12-08T00:54:50.915Z,99.99
2016-12-08T00:55:50.748Z,99.99
2016-12-08T00:56:51.401Z,99.99
2016-12-08T00:57:51.008Z,99.99
2016-12-08T00:58:50.875Z,99.99
2016-12-08T00:59:50.719Z,99.99
2016-12-08T01:00:51.114Z,99.99
2016-12-08T01:01:50.946Z,99.99
2016-12-08T01:02:51.185Z,99.99
2016-12-08T01:03:51.372Z,99.99
2016-12-08T01:04:50.739Z,99.99
2016-12-08T01:05:51.415Z,99.99
2016-12-08T01:06:52.654Z,99.99
2016-12-08T01:07:51.755Z,99.99
2016-12-08T01:08:51.362Z,99.99
2016-12-08T01:09:51.427Z,99.99
2016-12-08T01:10:51.411Z,99.99
2016-12-08T01:11:51.509Z,99.99
2016-12-08T01:12:51.164Z,99.99
2016-12-08T01:13:51.589Z,99.99
2016-12-08T01:14:50.894Z,99.99
2016-12-08T01:15:50.944Z,99.99
2016-12-08T01:16:51.427Z,99.99
2016-12-08T01:17:51.589Z,99.99
2016-12-08T01:18:51.182Z,99.99
2016-12-08T01:19:51.378Z,99.99
2016-12-08T01:20:51.371Z,99.99
2016-12-08T01:21:51.075Z,99.99
2016-12-08T01:22:51.546Z,99.99
2016-12-08T01:23:51.653Z,99.99
2016-12-08T01:24:51.014Z,99.99
2016-12-08T01:25:51.030Z,99.99
2016-12-08T01:26:50.906Z,99.99
2016-12-08T01:27:51.024Z,99.99
2016-12-08T01:28:51.502Z,99.99
2016-12-08T01:29:51.189Z,99.99
2016-12-08T01:30:51.022Z,99.99
2016-12-08T01:31:51.286Z,99.99
2016-12-08T01:32:51.524Z,99.99
2016-12-08T01:33:51.692Z,99.99
2016-12-08T01:34:51.348Z,99.99
2016-12-08T01:35:51.549Z,99.99
2016-12-08T01:36:52.269Z,99.99
2016-12-08T01:37:51.180Z,99.99
2016-12-08T01:38:51.769Z,99.99
2016-12-08T01:39:51.431Z,99.99
2016-12-08T01:40:51.885Z,99.99
2016-12-08T01:41:51.385Z,99.99
2016-12-08T01:42:52.296Z,99.99
2016-12-08T01:43:51.562Z,99.99
2016-12-08T01:44:51.911Z,99.99
2016-12-08T01:45:51.411Z,99.99
2016-12-08T01:46:51.344Z,99.99
2016-12-08T01:47:51.994Z,99.99
2016-12-08T01:48:52.015Z,99.99
2016-12-08T01:49:51.533Z,99.99
2016-12-08T01:50:51.657Z,99.99
2016-12-08T01:51:52.167Z,99.99
2016-12-08T01:52:52.080Z,99.99
2016-12-08T01:53:51.480Z,99.99
2016-12-08T01:54:51.919Z,99.99
2016-12-08T01:55:51.824Z,99.99
2016-12-08T01:56:51.683Z,99.99
2016-12-08T01:57:51.703Z,99.99
2016-12-08T01:58:51.714Z,99.99
2016-12-08T01:59:51.651Z,99.99
2016-12-08T02:00:51.959Z,99.99
2016-12-08T02:01:51.394Z,99.99
2016-12-08T02:02:52.524Z,99.99
2016-12-08T02:03:51.761Z,99.99
2016-12-08T02:04:51.839Z,99.99
2016-12-08T02:05:51.660Z,99.99
2016-12-08T02:06:51.558Z,99.99
2016-12-08T02:07:51.793Z,99.99
2016-12-08T02:08:51.627Z,99.99
2016-12-08T02:09:51.871Z,99.99
2016-12-08T02:10:52.273Z,99.99
2016-12-08T02:11:51.468Z,99.99
2016-12-08T02:12:52.602Z,99.99
2016-12-08T02:13:52.264Z,99.99
2016-12-08T02:14:52.218Z,99.99
2016-12-08T02:15:51.611Z,99.99
2016-12-08T02:16:52.099Z,99.99
2016-12-08T02:17:51.966Z,99.99
2016-12-08T02:18:51.929Z,99.99
2016-12-08T02:19:51.849Z,99.99
2016-12-08T02:20:52.177Z,99.99
2016-12-08T02:21:52.070Z,99.99
2016-12-08T02:22:53.184Z,99.99
2016-12-08T02:23:52.323Z,99.99
2016-12-08T02:24:52.049Z,99.99
2016-12-08T02:25:51.845Z,99.99
2016-12-08T02:26:52.304Z,99.99
2016-12-08T02:27:51.859Z,99.99
2016-12-08T02:28:52.147Z,99.99
2016-12-08T02:29:52.084Z,99.99
2016-12-08T02:30:52.256Z,99.99
2016-12-08T02:31:52.127Z,99.99
2016-12-08T02:32:51.909Z,99.99
2016-12-08T02:33:52.167Z,99.99
2016-12-08T02:34:51.893Z,99.99
2016-12-08T02:35:52.528Z,99.99
2016-12-08T02:36:51.932Z,99.99
2016-12-08T02:37:52.096Z,99.99
2016-12-08T02:38:52.471Z,99.99
2016-12-08T02:39:53.038Z,99.99
2016-12-08T02:40:52.702Z,99.99
2016-12-08T02:41:52.814Z,99.99
2016-12-08T02:42:52.023Z,99.99
2016-12-08T02:43:52.386Z,99.99
2016-12-08T02:44:52.147Z,99.99
2016-12-08T02:45:51.980Z,99.99
2016-12-08T02:46:51.984Z,99.99
2016-12-08T02:47:51.956Z,99.99
2016-12-08T02:48:52.096Z,99.99
2016-12-08T02:49:52.427Z,99.99
2016-12-08T02:50:52.983Z,99.99
2016-12-08T02:51:51.977Z,99.99
2016-12-08T02:52:52.527Z,99.99
2016-12-08T02:53:52.240Z,99.99
2016-12-08T02:54:52.230Z,99.99
2016-12-08T02:55:52.318Z,99.99
2016-12-08T02:56:52.554Z,99.99
2016-12-08T02:57:52.924Z,99.99
2016-12-08T02:58:52.493Z,99.99
2016-12-08T02:59:52.506Z,99.99
2016-12-08T03:00:52.602Z,99.99
2016-12-08T03:01:52.886Z,99.99
2016-12-08T03:02:52.594Z,99.99
2016-12-08T03:03:53.143Z,99.99
2016-12-08T03:04:52.360Z,99.99
2016-12-08T03:05:52.232Z,99.99
2016-12-08T03:06:52.808Z,99.99
2016-12-08T03:07:52.762Z,99.99
2016-12-08T03:08:52.561Z,99.99
2016-12-08T03:09:53.158Z,99.99
2016-12-08T03:10:52.758Z,99.99
2016-12-08T03:11:52.430Z,99.99
2016-12-08T03:12:52.347Z,99.99
2016-12-08T03:13:52.299Z,99.99
2016-12-08T03:14:52.530Z,99.99
2016-12-08T03:15:52.868Z,99.99
2016-12-08T03:16:52.819Z,99.99
2016-12-08T03:17:53.150Z,99.99
2016-12-08T03:18:53.055Z,99.99
2016-12-08T03:19:53.350Z,99.99
2016-12-08T03:20:52.753Z,99.99
2016-12-08T03:21:52.924Z,99.99
2016-12-08T03:22:52.537Z,99.99
2016-12-08T03:23:52.795Z,99.99
2016-12-08T03:24:53.049Z,99.99
2016-12-08T03:25:52.607Z,99.99
2016-12-08T03:26:52.588Z,99.99
2016-12-08T03:27:52.663Z,99.99
2016-12-08T03:28:53.149Z,99.99
2016-12-08T03:29:52.844Z,99.99
2016-12-08T03:30:53.261Z,99.99
2016-12-08T03:31:52.951Z,99.99
2016-12-08T03:32:53.045Z,99.99
2016-12-08T03:33:53.174Z,99.99
2016-12-08T03:34:53.062Z,99.99
2016-12-08T03:35:52.595Z,99.99
2016-12-08T03:36:53.323Z,99.99
2016-12-08T03:37:52.907Z,99.99
2016-12-08T03:38:52.960Z,99.99
2016-12-08T03:39:52.925Z,99.99
2016-12-08T03:40:52.865Z,99.99
2016-12-08T03:41:52.788Z,99.99
2016-12-08T03:42:52.927Z,99.99
2016-12-08T03:43:52.672Z,99.99
2016-12-08T03:44:53.104Z,99.99
2016-12-08T03:45:52.773Z,99.99
2016-12-08T03:46:52.664Z,99.99
2016-12-08T03:47:53.068Z,99.99
2016-12-08T03:48:53.138Z,99.99
2016-12-08T03:49:53.128Z,99.99
2016-12-08T03:50:52.938Z,99.99
2016-12-08T03:51:53.018Z,99.99
2016-12-08T03:52:53.615Z,99.99
2016-12-08T03:53:53.088Z,99.99
2016-12-08T03:54:52.923Z,99.99
2016-12-08T03:55:53.424Z,99.99
2016-12-08T03:56:53.218Z,99.99
2016-12-08T03:57:52.937Z,99.99
2016-12-08T03:58:53.275Z,99.99
2016-12-08T03:59:53.566Z,99.99
2016-12-08T04:00:52.780Z,99.99
2016-12-08T04:01:53.010Z,99.99
2016-12-08T04:02:53.275Z,99.99
2016-12-08T04:03:53.538Z,99.99
2016-12-08T04:04:53.670Z,99.99
2016-12-08T04:05:53.184Z,99.99
2016-12-08T04:06:52.972Z,99.99
2016-12-08T04:07:53.146Z,99.99
2016-12-08T04:08:53.235Z,99.99
2016-12-08T04:09:53.027Z,99.99
2016-12-08T04:10:53.464Z,99.99
2016-12-08T04:11:53.197Z,99.99
2016-12-08T04:12:52.862Z,99.99
2016-12-08T04:13:53.429Z,99.99
2016-12-08T04:14:53.208Z,99.99
2016-12-08T04:15:53.060Z,99.99
2016-12-08T04:16:53.036Z,99.99
2016-12-08T04:17:53.628Z,99.99
2016-12-08T04:18:53.635Z,99.99
2016-12-08T04:19:53.229Z,99.99
2016-12-08T04:20:53.702Z,99.99
2016-12-08T04:21:53.070Z,99.99
2016-12-08T04:22:53.739Z,99.99
2016-12-08T04:23:53.532Z,99.99
2016-12-08T04:24:53.138Z,99.99
2016-12-08T04:25:53.262Z,99.99
2016-12-08T04:26:53.566Z,99.99
2016-12-08T04:27:53.291Z,99.99
2016-12-08T04:28:53.181Z,99.99
2016-12-08T04:29:53.245Z,99.99
2016-12-08T04:30:53.574Z,99.99
2016-12-08T04:31:53.993Z,99.99
2016-12-08T04:32:53.676Z,99.99
2016-12-08T04:33:53.636Z,99.99
2016-12-08T04:34:53.435Z,99.99
2016-12-08T04:35:53.127Z,99.99
2016-12-08T04:36:53.675Z,99.99
2016-12-08T04:37:53.518Z,99.99
2016-12-08T04:38:53.492Z,99.99
2016-12-08T04:39:53.500Z,99.99
2016-12-08T04:40:53.364Z,99.99
2016-12-08T04:41:53.651Z,99.99
2016-12-08T04:42:53.836Z,99.99
2016-12-08T04:43:53.628Z,99.99
2016-12-08T04:44:53.600Z,99.99
2016-12-08T04:45:53.519Z,99.99
2016-12-08T04:46:53.574Z,99.99
2016-12-08T04:47:53.511Z,99.99
2016-12-08T04:48:53.797Z,99.99
2016-12-08T04:49:53.689Z,99.99
2016-12-08T04:50:53.776Z,99.99
2016-12-08T04:51:53.546Z,99.99
2016-12-08T04:52:53.760Z,99.99
2016-12-08T04:53:53.548Z,99.99
2016-12-08T04:54:53.911Z,99.99
2016-12-08T04:55:54.178Z,99.99
2016-12-08T04:56:53.748Z,99.99
2016-12-08T04:57:53.943Z,99.99
2016-12-08T04:58:54.213Z,99.99
2016-12-08T04:59:53.809Z,99.99
2016-12-08T05:00:53.614Z,99.99
2016-12-08T05:01:54.032Z,99.99
2016-12-08T05:02:54.175Z,99.99
2016-12-08T05:03:53.950Z,99.99
2016-12-08T05:04:53.700Z,99.99
2016-12-08T05:05:54.145Z,99.99
2016-12-08T05:06:53.666Z,99.99
2016-12-08T05:07:53.557Z,99.99
2016-12-08T05:08:53.689Z,99.99
2016-12-08T05:09:54.576Z,99.99
2016-12-08T05:10:54.077Z,99.99
2016-12-08T05:11:54.118Z,99.99
2016-12-08T05:12:54.327Z,99.99
2016-12-08T05:13:54.071Z,99.99
2016-12-08T05:14:54.293Z,99.99
2016-12-08T05:15:54.120Z,99.99
2016-12-08T05:16:54.102Z,99.99
2016-12-08T05:17:54.390Z,99.99
2016-12-08T05:18:54.049Z,99.99
2016-12-08T05:19:54.217Z,99.99
2016-12-08T05:20:54.254Z,99.99
2016-12-08T05:21:54.191Z,99.99
2016-12-08T05:22:53.883Z,99.99
2016-12-08T05:23:54.699Z,99.99
2016-12-08T05:24:54.231Z,99.99
2016-12-08T05:25:54.523Z,99.99
2016-12-08T05:26:54.490Z,99.99
2016-12-08T05:27:54.701Z,99.99
2016-12-08T05:28:54.753Z,99.99
2016-12-08T05:29:54.464Z,99.99
2016-12-08T05:30:54.333Z,99.99
2016-12-08T05:31:54.296Z,99.99
2016-12-08T05:32:54.015Z,99.99
2016-12-08T05:33:54.897Z,99.99
2016-12-08T05:34:54.115Z,99.99
2016-12-08T05:35:54.879Z,99.99
2016-12-08T05:36:54.483Z,99.99
2016-12-08T05:37:53.973Z,99.99
2016-12-08T05:38:54.362Z,99.99
2016-12-08T05:39:54.424Z,99.99
2016-12-08T05:40:54.795Z,99.99
2016-12-08T05:41:54.195Z,99.99
2016-12-08T05:42:54.641Z,99.99
2016-12-08T05:43:54.249Z,99.99
2016-12-08T05:44:55.102Z,99.99
2016-12-08T05:45:54.885Z,99.99
2016-12-08T05:46:54.781Z,99.99
2016-12-08T05:47:55.268Z,99.99
2016-12-08T05:48:54.295Z,99.99
2016-12-08T05:49:54.750Z,99.99
2016-12-08T05:50:55.206Z,99.99
2016-12-08T05:51:55.277Z,99.99
2016-12-08T05:52:54.355Z,99.99
2016-12-08T05:53:54.657Z,99.99
2016-12-08T05:54:54.651Z,99.99
2016-12-08T05:55:54.698Z,99.99
2016-12-08T05:56:54.183Z,99.99
2016-12-08T05:57:54.931Z,99.99
2016-12-08T05:58:54.691Z,99.99
2016-12-08T05:59:54.640Z,99.99
2016-12-08T06:00:54.930Z,99.99
2016-12-08T06:01:55.435Z,99.99
2016-12-08T06:02:55.605Z,99.99
2016-12-08T06:03:54.441Z,99.99
2016-12-08T06:04:54.522Z,99.99
2016-12-08T06:05:54.648Z,99.99
2016-12-08T06:06:55.424Z,99.99
2016-12-08T06:07:55.298Z,99.99
2016-12-08T06:08:55.426Z,99.99
2016-12-08T06:09:55.505Z,99.99
2016-12-08T06:10:55.802Z,99.99
2016-12-08T06:11:55.105Z,99.99
2016-12-08T06:12:55.291Z,99.99
2016-12-08T06:13:54.564Z,99.99
2016-12-08T06:14:54.749Z,99.99
2016-12-08T06:15:54.570Z,99.99
2016-12-08T06:16:54.942Z,99.99
2016-12-08T06:17:54.677Z,99.99
2016-12-08T06:18:54.407Z,99.99
2016-12-08T06:19:54.951Z,99.99
2016-12-08T06:20:55.250Z,99.99
2016-12-08T06:21:54.678Z,99.99
2016-12-08T06:22:55.881Z,99.99
2016-12-08T06:23:54.773Z,99.99
2016-12-08T06:24:55.236Z,99.99
2016-12-08T06:25:54.818Z,99.99
2016-12-08T06:26:54.543Z,99.99
2016-12-08T06:27:54.802Z,99.99
2016-12-08T06:28:54.998Z,99.99
2016-12-08T06:29:54.872Z,99.99
2016-12-08T06:30:54.802Z,99.99
2016-12-08T06:31:54.829Z,99.99
2016-12-08T06:32:54.659Z,99.99
2016-12-08T06:33:54.829Z,99.99
2016-12-08T06:34:55.735Z,99.99
2016-12-08T06:35:55.726Z,99.99
2016-12-08T06:36:54.944Z,99.99
2016-12-08T06:37:55.220Z,99.99
2016-12-08T06:38:54.826Z,99.99
2016-12-08T06:39:55.445Z,99.99
2016-12-08T06:40:56.006Z,99.99
2016-12-08T06:41:55.471Z,99.99
2016-12-08T06:42:55.105Z,99.99
2016-12-08T06:43:54.774Z,99.99
2016-12-08T06:44:55.706Z,99.99
2016-12-08T06:45:54.797Z,99.99
2016-12-08T06:46:55.046Z,99.99
2016-12-08T06:47:55.065Z,99.99
2016-12-08T06:48:54.724Z,99.99
2016-12-08T06:49:55.422Z,99.99
2016-12-08T06:50:55.026Z,99.99
2016-12-08T06:51:55.050Z,99.99
2016-12-08T06:52:55.271Z,99.99
2016-12-08T06:53:55.487Z,99.99
2016-12-08T06:54:55.362Z,99.99
2016-12-08T06:55:55.101Z,99.99
2016-12-08T06:56:54.971Z,99.99
2016-12-08T06:57:55.544Z,99.99
2016-12-08T06:58:55.157Z,99.99
2016-12-08T06:59:55.039Z,99.99
2016-12-08T07:00:55.271Z,99.99
2016-12-08T07:01:55.289Z,99.99
2016-12-08T07:02:55.130Z,99.99
2016-12-08T07:03:55.073Z,99.99
2016-12-08T07:04:55.079Z,99.99
2016-12-08T07:05:55.122Z,99.99
2016-12-08T07:06:55.620Z,99.99
2016-12-08T07:07:55.384Z,99.99
2016-12-08T07:08:54.989Z,99.99
2016-12-08T07:09:55.307Z,99.99
2016-12-08T07:10:55.384Z,99.99
2016-12-08T07:11:55.052Z,99.99
2016-12-08T07:12:55.129Z,99.99
2016-12-08T07:13:55.336Z,99.99
2016-12-08T07:14:55.917Z,99.99
2016-12-08T07:15:55.748Z,99.99
2016-12-08T07:16:55.728Z,99.99
2016-12-08T07:17:55.935Z,99.99
2016-12-08T07:18:55.938Z,99.99
2016-12-08T07:19:55.671Z,99.99
2016-12-08T07:20:57.136Z,99.99
2016-12-08T07:21:55.228Z,99.99
2016-12-08T07:22:55.046Z,99.99
2016-12-08T07:23:55.713Z,99.99
2016-12-08T07:24:55.355Z,99.99
2016-12-08T07:25:55.434Z,99.99
2016-12-08T07:26:55.921Z,99.99
2016-12-08T07:27:55.295Z,99.99
2016-12-08T07:28:55.758Z,99.99
2016-12-08T07:29:55.374Z,99.99
2016-12-08T07:30:55.706Z,99.99
2016-12-08T07:31:55.441Z,99.99
2016-12-08T07:32:55.615Z,99.99
2016-12-08T07:33:55.775Z,99.99
2016-12-08T07:34:55.571Z,99.99
2016-12-08T07:35:55.417Z,99.99
2016-12-08T07:36:55.832Z,99.99
2016-12-08T07:37:55.683Z,99.99
2016-12-08T07:38:55.757Z,99.99
2016-12-08T07:39:55.915Z,99.99
2016-12-08T07:40:56.049Z,99.99
2016-12-08T07:41:56.792Z,99.99
2016-12-08T07:42:57.085Z,99.99
2016-12-08T07:43:56.132Z,99.99
2016-12-08T07:44:56.105Z,99.99
2016-12-08T07:45:55.968Z,99.99
2016-12-08T07:46:55.909Z,99.99
2016-12-08T07:47:56.196Z,99.99
2016-12-08T07:48:55.776Z,99.99
2016-12-08T07:49:56.334Z,99.99
2016-12-08T07:50:55.998Z,99.99
2016-12-08T07:51:56.118Z,99.99
2016-12-08T07:52:55.979Z,99.99
2016-12-08T07:53:55.629Z,99.99
2016-12-08T07:54:55.984Z,99.99
2016-12-08T07:55:56.104Z,99.99
2016-12-08T07:56:56.098Z,99.99
2016-12-08T07:57:55.634Z,99.99
2016-12-08T07:58:55.641Z,99.99
2016-12-08T07:59:56.729Z,99.99
2016-12-08T08:00:55.636Z,99.99
2016-12-08T08:01:55.878Z,99.99
2016-12-08T08:02:55.898Z,99.99
2016-12-08T08:03:55.770Z,99.99
2016-12-08T08:04:55.633Z,99.99
2016-12-08T08:05:55.628Z,99.99
2016-12-08T08:06:56.237Z,99.99
2016-12-08T08:07:56.418Z,99.99
2016-12-08T08:08:56.204Z,99.99
2016-12-08T08:09:55.759Z,99.99
2016-12-08T08:10:55.814Z,99.99
2016-12-08T08:11:56.121Z,99.99
2016-12-08T08:12:55.773Z,99.99
2016-12-08T08:13:56.067Z,99.99
2016-12-08T08:14:55.805Z,99.99
2016-12-08T08:15:56.327Z,99.99
2016-12-08T08:16:55.922Z,99.99
2016-12-08T08:17:56.304Z,99.99
2016-12-08T08:18:55.845Z,99.99
2016-12-08T08:19:56.043Z,99.99
2016-12-08T08:20:55.880Z,99.99
2016-12-08T08:21:56.239Z,99.99
2016-12-08T08:22:56.174Z,99.99
2016-12-08T08:23:56.062Z,99.99
2016-12-08T08:24:56.295Z,99.99
2016-12-08T08:25:56.627Z,99.99
2016-12-08T08:26:56.255Z,99.99
2016-12-08T08:27:56.558Z,99.99
2016-12-08T08:28:55.815Z,99.99
2016-12-08T08:29:56.078Z,99.99
2016-12-08T08:30:56.286Z,99.99
2016-12-08T08:31:56.165Z,99.99
2016-12-08T08:32:56.120Z,99.99
2016-12-08T08:33:55.981Z,99.99
2016-12-08T08:34:56.147Z,99.99
2016-12-08T08:35:56.296Z,99.99
2016-12-08T08:36:56.335Z,99.99
2016-12-08T08:37:57.120Z,99.99
2016-12-08T08:38:56.082Z,99.99
2016-12-08T08:39:56.037Z,99.99
2016-12-08T08:40:56.914Z,99.99
2016-12-08T08:41:56.270Z,99.99
2016-12-08T08:42:56.620Z,99.99
2016-12-08T08:43:56.382Z,99.99
2016-12-08T08:44:56.978Z,99.99
2016-12-08T08:45:56.792Z,99.99
2016-12-08T08:46:56.223Z,99.99
2016-12-08T08:47:56.231Z,99.99
2016-12-08T08:48:56.586Z,99.99
2016-12-08T08:49:56.323Z,99.99
2016-12-08T08:50:56.963Z,99.99
2016-12-08T08:51:56.607Z,99.99
2016-12-08T08:52:56.804Z,99.99
2016-12-08T08:53:56.343Z,99.99
2016-12-08T08:54:56.242Z,99.99
2016-12-08T08:55:57.106Z,99.99
2016-12-08T08:56:56.735Z,99.99
2016-12-08T08:57:56.540Z,99.99
2016-12-08T08:58:56.329Z,99.99
2016-12-08T08:59:56.327Z,99.99
2016-12-08T09:00:56.629Z,99.99
2016-12-08T09:01:56.391Z,99.99
2016-12-08T09:02:56.599Z,99.99
2016-12-08T09:03:56.706Z,99.99
2016-12-08T09:04:56.481Z,99.99
2016-12-08T09:05:56.328Z,99.99
2016-12-08T09:06:57.065Z,99.99
2016-12-08T09:07:57.220Z,99.99
2016-12-08T09:08:56.860Z,99.99
2016-12-08T09:09:56.541Z,99.99
2016-12-08T09:10:56.700Z,99.99
2016-12-08T09:11:57.000Z,99.99
2016-12-08T09:12:56.769Z,99.99
2016-12-08T09:13:56.963Z,99.99
2016-12-08T09:14:56.965Z,99.99
2016-12-08T09:15:56.682Z,99.99
2016-12-08T09:16:56.657Z,99.99
2016-12-08T09:17:56.886Z,99.99
2016-12-08T09:18:56.857Z,99.99
2016-12-08T09:19:56.884Z,99.99
2016-12-08T09:20:57.431Z,99.99
2016-12-08T09:21:56.872Z,99.99
2016-12-08T09:22:56.803Z,99.99
2016-12-08T09:23:56.796Z,99.99
2016-12-08T09:24:56.775Z,99.99
2016-12-08T09:25:57.264Z,99.99
2016-12-08T09:26:56.763Z,99.99
2016-12-08T09:27:57.168Z,99.99
2016-12-08T09:28:56.808Z,99.99
2016-12-08T09:29:56.957Z,99.99
2016-12-08T09:30:56.744Z,99.99
2016-12-08T09:31:56.920Z,99.99
2016-12-08T09:32:56.730Z,99.99
2016-12-08T09:33:56.802Z,99.99
2016-12-08T09:34:57.252Z,99.99
2016-12-08T09:35:57.132Z,99.99
2016-12-08T09:36:56.926Z,99.99
2016-12-08T09:37:57.103Z,99.99
2016-12-08T09:38:57.593Z,99.99
2016-12-08T09:39:57.435Z,99.99
2016-12-08T09:40:57.589Z,99.99
2016-12-08T09:41:57.209Z,99.99
2016-12-08T09:42:57.040Z,99.99
2016-12-08T09:43:57.363Z,99.99
2016-12-08T09:44:57.414Z,99.99
2016-12-08T09:45:56.822Z,99.99
2016-12-08T09:46:56.944Z,99.99
2016-12-08T09:47:57.430Z,99.99
2016-12-08T09:48:56.903Z,99.99
2016-12-08T09:49:56.905Z,99.99
2016-12-08T09:50:58.010Z,99.99
2016-12-08T09:51:57.109Z,99.99
2016-12-08T09:52:57.811Z,99.99
2016-12-08T09:53:57.101Z,99.99
2016-12-08T09:54:57.565Z,99.99
2016-12-08T09:55:57.483Z,99.99
2016-12-08T09:56:57.109Z,99.99
2016-12-08T09:57:57.291Z,99.99
2016-12-08T09:58:57.341Z,99.99
2016-12-08T09:59:57.289Z,99.99
2016-12-08T10:00:57.530Z,99.99
2016-12-08T10:01:57.299Z,99.99
2016-12-08T10:02:57.551Z,99.99
2016-12-08T10:03:57.937Z,99.99
2016-12-08T10:04:57.205Z,99.99
2016-12-08T10:05:57.283Z,99.99
2016-12-08T10:06:57.404Z,99.99
2016-12-08T10:07:57.615Z,99.99
2016-12-08T10:08:57.225Z,99.99
2016-12-08T10:09:57.203Z,99.99
2016-12-08T10:10:57.727Z,99.99
2016-12-08T10:11:58.014Z,99.99
2016-12-08T10:12:57.348Z,99.99
2016-12-08T10:13:57.469Z,99.99
2016-12-08T10:14:57.295Z,99.99
2016-12-08T10:15:57.360Z,99.99
2016-12-08T10:16:57.351Z,99.99
2016-12-08T10:17:58.294Z,99.99
2016-12-08T10:18:57.733Z,99.99
2016-12-08T10:19:57.552Z,99.99
2016-12-08T10:20:58.118Z,99.99
2016-12-08T10:21:57.431Z,99.99
2016-12-08T10:22:57.754Z,99.99
2016-12-08T10:23:57.634Z,99.99
2016-12-08T10:24:57.662Z,99.99
2016-12-08T10:25:58.079Z,99.99
2016-12-08T10:26:57.341Z,99.99
2016-12-08T10:27:57.655Z,99.99
2016-12-08T10:28:57.611Z,99.99
2016-12-08T10:29:57.728Z,99.99
2016-12-08T10:30:57.598Z,99.99
2016-12-08T10:31:58.079Z,99.99
2016-12-08T10:32:57.880Z,99.99
2016-12-08T10:33:57.830Z,99.99
2016-12-08T10:34:57.670Z,99.99
2016-12-08T10:35:58.589Z,99.99
2016-12-08T10:36:57.607Z,99.99
2016-12-08T10:37:58.021Z,99.99
2016-12-08T10:38:57.791Z,99.99
2016-12-08T10:39:57.569Z,99.99
2016-12-08T10:40:57.763Z,99.99
2016-12-08T10:41:57.759Z,99.99
2016-12-08T10:42:57.618Z,99.99
2016-12-08T10:43:57.723Z,99.99
2016-12-08T10:44:58.098Z,99.99
2016-12-08T10:45:58.468Z,99.99
2016-12-08T10:46:57.786Z,99.99
2016-12-08T10:47:57.957Z,99.99
2016-12-08T10:48:58.020Z,99.99
2016-12-08T10:49:58.390Z,99.99
2016-12-08T10:50:58.740Z,99.99
2016-12-08T10:51:57.930Z,99.99
2016-12-08T10:52:58.082Z,99.99
2016-12-08T10:53:57.726Z,99.99
2016-12-08T10:54:58.053Z,99.99
2016-12-08T10:55:58.196Z,99.99
2016-12-08T10:56:58.348Z,99.99
2016-12-08T10:57:57.978Z,99.99
2016-12-08T10:58:58.402Z,99.99
2016-12-08T10:59:58.095Z,99.99
2016-12-08T11:00:58.089Z,99.99
2016-12-08T11:01:57.900Z,99.99
2016-12-08T11:02:58.005Z,99.99
2016-12-08T11:03:57.861Z,99.99
2016-12-08T11:04:58.026Z,99.67
2016-12-08T11:05:58.056Z,99.96
2016-12-08T11:06:58.357Z,99.58
2016-12-08T11:07:58.825Z,99.71
2016-12-08T11:08:58.721Z,99.77
2016-12-08T11:09:58.186Z,99.58
2016-12-08T11:10:58.301Z,99.99
2016-12-08T11:11:58.408Z,99.99
2016-12-08T11:12:58.312Z,99.99
2016-12-08T11:13:58.373Z,99.99
2016-12-08T11:14:58.571Z,99.99
2016-12-08T11:15:58.431Z,99.99
2016-12-08T11:16:58.595Z,99.71
2016-12-08T11:17:58.171Z,99.39
2016-12-08T11:18:58.565Z,99.81
2016-12-08T11:19:58.358Z,99.67
2016-12-08T11:20:58.594Z,99.86
2016-12-08T11:21:58.482Z,99.39
2016-12-08T11:22:58.372Z,98.82
2016-12-08T11:23:58.509Z,98.72
2016-12-08T11:24:58.689Z,98.91
2016-12-08T11:25:59.091Z,98.25
2016-12-08T11:26:58.296Z,98.35
2016-12-08T11:27:58.817Z,97.78
2016-12-08T11:28:58.458Z,97.87
2016-12-08T11:29:58.642Z,97.59
2016-12-08T11:30:58.603Z,98.06
2016-12-08T11:31:58.512Z,98.25
2016-12-08T11:32:58.740Z,98.25
2016-12-08T11:33:59.001Z,97.78
2016-12-08T11:34:58.416Z,97.87
2016-12-08T11:35:58.572Z,97.87
2016-12-08T11:36:58.464Z,97.97
2016-12-08T11:37:59.064Z,98.06
2016-12-08T11:38:58.855Z,97.87
2016-12-08T11:39:58.585Z,98.82
2016-12-08T11:40:59.087Z,98.82
2016-12-08T11:41:58.614Z,98.72
2016-12-08T11:42:59.396Z,99.67
2016-12-08T11:43:59.295Z,99.01
2016-12-08T11:44:58.900Z,98.82
2016-12-08T11:45:58.611Z,98.44
2016-12-08T11:46:58.901Z,98.54
2016-12-08T11:47:58.797Z,98.44
2016-12-08T11:48:59.387Z,98.35
2016-12-08T11:49:59.006Z,98.54
2016-12-08T11:50:58.877Z,98.25
2016-12-08T11:51:58.898Z,98.44
2016-12-08T11:52:59.632Z,98.25
2016-12-08T11:53:58.991Z,98.91
2016-12-08T11:54:59.145Z,99.1
2016-12-08T11:55:58.963Z,98.44
2016-12-08T11:56:58.846Z,98.25
2016-12-08T11:57:59.071Z,98.82
2016-12-08T11:58:59.225Z,98.54
2016-12-08T11:59:59.272Z,98.82
2016-12-08T12:00:59.430Z,98.91
2016-12-08T12:01:58.974Z,98.68
2016-12-08T12:02:59.466Z,98.91
2016-12-08T12:03:59.407Z,99.52
2016-12-08T12:04:58.939Z,99.05
2016-12-08T12:05:59.053Z,99.43
2016-12-08T12:06:59.735Z,99.71
2016-12-08T12:07:59.306Z,99.62
2016-12-08T12:08:59.177Z,99.62
2016-12-08T12:09:59.642Z,99.24
2016-12-08T12:10:59.642Z,99.62
2016-12-08T12:11:59.474Z,99.52
2016-12-08T12:12:59.780Z,99.99
2016-12-08T12:13:59.506Z,99.81
2016-12-08T12:15:00.025Z,99.99
2016-12-08T12:15:59.630Z,99.99
2016-12-08T12:16:59.359Z,99.99
2016-12-08T12:17:59.145Z,99.99
2016-12-08T12:18:59.189Z,99.99
2016-12-08T12:19:59.989Z,99.99
2016-12-08T12:20:59.568Z,99.99
2016-12-08T12:21:59.512Z,99.99
2016-12-08T12:22:59.930Z,99.81
2016-12-08T12:23:59.188Z,99.81
2016-12-08T12:24:59.264Z,99.9
2016-12-08T12:25:59.383Z,99.52
2016-12-08T12:26:59.729Z,99.43
2016-12-08T12:27:59.370Z,99.52
2016-12-08T12:28:59.726Z,99.43
2016-12-08T12:29:59.605Z,99.71
2016-12-08T12:30:59.619Z,99.62
2016-12-08T12:31:59.510Z,98.82
2016-12-08T12:33:00.540Z,98.82
2016-12-08T12:33:59.519Z,98.82
2016-12-08T12:34:59.825Z,98.63
2016-12-08T12:35:59.812Z,98.63
2016-12-08T12:36:59.723Z,98.44
2016-12-08T12:38:00.396Z,97.97
2016-12-08T12:38:59.745Z,98.16
2016-12-08T12:40:00.172Z,98.25
2016-12-08T12:40:59.724Z,97.3
2016-12-08T12:41:59.726Z,96.83
2016-12-08T12:42:59.677Z,95.88
2016-12-08T12:43:59.919Z,95.88
2016-12-08T12:44:59.880Z,96.36
2016-12-08T12:46:00.193Z,96.17
2016-12-08T12:46:59.801Z,95.55
2016-12-08T12:47:59.839Z,95.17
2016-12-08T12:48:59.680Z,94.42
2016-12-08T12:49:59.622Z,94.32
2016-12-08T12:50:59.574Z,95.17
2016-12-08T12:51:59.838Z,95.45
2016-12-08T12:52:59.765Z,95.88